Time;durP1;ratioP1;P1;durP2;ratioP2;P2;SDS_P1;SDS_P2;PMS_P1;PMS_P2;Temp;Humidity;BMP_temperature;BMP_pressure;BME280_temperature;BME280_humidity;BME280_pressure;Samples;Min_cycle;Max_cycle;Signal;HPM_P1;HPM_P2
2022/10/06 00:00:39;;;;;;;8.00;6.60;;;17.10;99.90;;;;;;5094542;28;20525;-78
2022/10/06 00:03:06;;;;;;;10.80;8.30;;;17.10;99.90;;;;;;5097807;28;20985;-78
2022/10/06 00:05:33;;;;;;;7.67;6.87;;;17.10;99.90;;;;;;5094443;28;20849;-79
2022/10/06 00:08:02;;;;;;;13.37;9.13;;;17.10;99.90;;;;;;5097532;28;20502;-78
2022/10/06 00:10:30;;;;;;;8.33;6.20;;;17.10;99.90;;;;;;5094138;28;20482;-77
2022/10/06 00:13:00;;;;;;;6.27;4.23;;;17.10;99.90;;;;;;5094100;28;20475;-79
2022/10/06 00:15:30;;;;;;;4.70;4.30;;;17.10;99.90;;;;;;5093459;28;20598;-77
2022/10/06 00:18:12;;;;;;;3.57;3.30;;;17.10;99.90;;;;;;5081743;28;20504;-78
2022/10/06 00:20:42;;;;;;;3.93;3.53;;;17.10;99.90;;;;;;5093131;28;20924;-79
2022/10/06 00:23:10;;;;;;;4.00;3.67;;;17.10;99.90;;;;;;5093710;28;20568;-79
2022/10/06 00:25:38;;;;;;;5.90;5.30;;;17.10;99.90;;;;;;5093186;28;20792;-78
2022/10/06 00:28:05;;;;;;;5.87;5.17;;;17.10;99.90;;;;;;5095032;28;20479;-79
2022/10/06 00:30:33;;;;;;;6.77;5.50;;;17.10;99.90;;;;;;5093795;28;20480;-78
2022/10/06 00:33:02;;;;;;;4.83;4.43;;;17.10;99.90;;;;;;5093757;28;20957;-79
2022/10/06 00:35:32;;;;;;;4.07;3.77;;;17.10;99.90;;;;;;5093916;28;20527;-78
2022/10/06 00:37:59;;;;;;;3.90;3.60;;;17.10;99.90;;;;;;5092970;28;20468;-79
2022/10/06 00:40:28;;;;;;;3.77;3.47;;;17.10;99.90;;;;;;5093557;28;20808;-79
2022/10/06 00:42:57;;;;;;;4.53;3.93;;;17.10;99.90;;;;;;5094303;28;20477;-79
2022/10/06 00:48:34;;;;;;;6.90;6.20;;;17.10;99.90;;;;;;5093458;28;20469;-77
2022/10/06 00:51:02;;;;;;;5.20;4.63;;;17.20;99.90;;;;;;5092063;28;20475;-77
2022/10/06 00:53:34;;;;;;;7.23;6.20;;;17.20;99.90;;;;;;5092915;28;20469;-77
2022/10/06 00:56:03;;;;;;;4.60;4.20;;;17.20;99.90;;;;;;5093597;28;20487;-79
2022/10/06 00:58:30;;;;;;;4.90;4.13;;;17.20;99.90;;;;;;5093171;28;20452;-79
2022/10/06 01:00:59;;;;;;;4.70;4.30;;;17.20;99.90;;;;;;5093630;28;20783;-80
2022/10/06 01:03:29;;;;;;;5.03;4.53;;;17.20;99.90;;;;;;5093166;28;20850;-80
2022/10/06 01:05:58;;;;;;;4.60;4.00;;;17.30;99.90;;;;;;5093560;28;20573;-80
2022/10/06 01:08:25;;;;;;;4.67;4.27;;;17.30;99.90;;;;;;5092939;28;20554;-79
2022/10/06 01:10:52;;;;;;;8.43;4.80;;;17.30;99.90;;;;;;5096301;28;20476;-79
2022/10/06 01:13:21;;;;;;;5.30;4.40;;;17.30;99.90;;;;;;5095753;28;20533;-80
2022/10/06 01:15:53;;;;;;;5.77;5.17;;;17.30;99.90;;;;;;5097486;28;20537;-77
2022/10/06 01:18:26;;;;;;;4.40;3.83;;;17.30;99.90;;;;;;5093500;28;20467;-78
2022/10/06 01:21:02;;;;;;;13.97;10.57;;;17.30;99.90;;;;;;5093977;28;20835;-78
2022/10/06 01:23:35;;;;;;;4.80;4.30;;;17.40;99.90;;;;;;5093526;28;20461;-79
2022/10/06 01:26:07;;;;;;;5.17;4.67;;;17.40;99.90;;;;;;5093290;28;20969;-79
2022/10/06 01:28:35;;;;;;;5.23;4.13;;;17.40;99.90;;;;;;5093118;28;20799;-80
2022/10/06 01:31:03;;;;;;;3.53;3.23;;;17.50;99.90;;;;;;5081614;28;20503;-79
2022/10/06 01:33:33;;;;;;;3.70;3.40;;;17.40;99.90;;;;;;5093057;28;21158;-80
2022/10/06 01:36:07;;;;;;;3.63;3.33;;;17.50;99.90;;;;;;5093399;28;20812;-79
2022/10/06 01:38:39;;;;;;;3.87;3.57;;;17.50;99.90;;;;;;5086664;28;20805;-78
2022/10/06 01:41:06;;;;;;;6.30;5.70;;;17.50;99.90;;;;;;5097473;28;20463;-78
2022/10/06 01:43:33;;;;;;;11.07;9.97;;;17.50;99.90;;;;;;5097521;28;20858;-80
2022/10/06 01:46:01;;;;;;;4.90;3.90;;;17.50;99.90;;;;;;5098748;28;20525;-79
2022/10/06 01:48:28;;;;;;;4.17;3.57;;;17.50;99.90;;;;;;5097533;28;20475;-80
2022/10/06 01:50:55;;;;;;;3.87;3.57;;;17.50;99.90;;;;;;5099267;28;20792;-80
2022/10/06 01:53:23;;;;;;;5.43;3.87;;;17.60;99.90;;;;;;5104448;28;20483;-80
2022/10/06 01:55:52;;;;;;;3.53;3.23;;;17.60;99.90;;;;;;5114625;28;20458;-80
2022/10/06 01:58:19;;;;;;;3.60;3.30;;;17.60;99.90;;;;;;5116240;28;20474;-79
2022/10/06 02:00:46;;;;;;;3.60;3.30;;;17.50;99.90;;;;;;5116843;28;20454;-80
2022/10/06 02:03:14;;;;;;;3.50;3.20;;;17.60;99.90;;;;;;5108998;28;20469;-80
2022/10/06 02:05:41;;;;;;;4.67;3.40;;;17.50;99.90;;;;;;5105541;28;20452;-80
2022/10/06 02:08:15;;;;;;;3.43;2.93;;;17.50;99.90;;;;;;5104705;28;20472;-80
2022/10/06 02:10:42;;;;;;;2.77;2.57;;;17.50;99.90;;;;;;5103155;28;20541;-79
2022/10/06 02:13:10;;;;;;;3.90;3.60;;;17.60;99.90;;;;;;5106954;28;20503;-80
2022/10/06 02:15:37;;;;;;;3.87;3.47;;;17.50;99.90;;;;;;5109273;28;20472;-80
2022/10/06 02:18:14;;;;;;;4.03;3.33;;;17.50;99.90;;;;;;5101415;28;20553;-78
2022/10/06 02:20:42;;;;;;;3.57;3.27;;;17.50;99.90;;;;;;5096860;28;20465;-79
2022/10/06 02:23:09;;;;;;;2.77;2.57;;;17.50;99.90;;;;;;5098243;28;20475;-78
2022/10/06 02:25:44;;;;;;;2.73;2.40;;;17.50;99.90;;;;;;5097852;28;20481;-78
2022/10/06 02:28:12;;;;;;;4.17;3.80;;;17.50;99.90;;;;;;5100355;28;20470;-78
2022/10/06 02:30:39;;;;;;;5.90;3.60;;;17.40;99.90;;;;;;5101086;28;20472;-78
2022/10/06 02:33:06;;;;;;;3.80;3.40;;;17.40;99.90;;;;;;5102979;28;20483;-81
2022/10/06 02:35:34;;;;;;;3.80;3.47;;;17.40;99.90;;;;;;5105656;28;20498;-81
2022/10/06 02:38:01;;;;;;;4.80;4.40;;;17.40;99.90;;;;;;5106532;28;20466;-80
2022/10/06 02:40:28;;;;;;;3.60;3.30;;;17.40;99.90;;;;;;5090856;28;20475;-78
2022/10/06 02:42:54;;;;;;;3.90;3.60;;;17.40;99.90;;;;;;5103358;28;20467;-79
2022/10/06 02:45:23;;;;;;;3.50;3.27;;;17.40;99.90;;;;;;5101555;28;20538;-78
2022/10/06 02:47:56;;;;;;;4.03;3.53;;;17.40;99.90;;;;;;5099832;28;20838;-78
2022/10/06 02:50:26;;;;;;;5.57;4.20;;;17.40;99.90;;;;;;5097329;28;20986;-80
2022/10/06 02:52:54;;;;;;;5.73;3.57;;;17.40;99.90;;;;;;5095434;28;20612;-79
2022/10/06 02:55:23;;;;;;;5.13;4.60;;;17.40;99.90;;;;;;5095924;28;20779;-80
2022/10/06 02:57:50;;;;;;;4.33;3.93;;;17.40;99.90;;;;;;5095472;28;20990;-80
2022/10/06 03:00:20;;;;;;;3.97;3.67;;;17.40;99.90;;;;;;5087020;28;20492;-80
2022/10/06 03:02:52;;;;;;;8.33;6.60;;;17.40;99.90;;;;;;5095680;28;20476;-78
2022/10/06 03:05:19;;;;;;;4.03;3.63;;;17.40;99.90;;;;;;5095493;28;20554;-77
2022/10/06 03:07:46;;;;;;;7.23;4.40;;;17.40;99.90;;;;;;5095416;28;20557;-79
2022/10/06 03:10:13;;;;;;;4.43;2.93;;;17.40;99.90;;;;;;5095962;28;20499;-78
2022/10/06 03:12:40;;;;;;;3.67;3.47;;;17.40;99.90;;;;;;5095427;28;20476;-78
2022/10/06 03:15:08;;;;;;;5.10;3.33;;;17.50;99.90;;;;;;5095347;28;20904;-78
2022/10/06 03:17:35;;;;;;;7.00;5.67;;;17.50;99.90;;;;;;5094768;28;20502;-78
2022/10/06 03:20:04;;;;;;;5.30;4.90;;;17.50;99.90;;;;;;5094984;28;20464;-79
2022/10/06 03:22:31;;;;;;;5.50;4.93;;;17.50;99.90;;;;;;5094262;28;20854;-79
2022/10/06 03:24:58;;;;;;;9.77;7.50;;;17.60;99.90;;;;;;5073565;28;20588;-78
2022/10/06 03:27:25;;;;;;;11.20;9.43;;;17.60;99.90;;;;;;5094290;28;20554;-78
2022/10/06 03:29:52;;;;;;;7.63;6.23;;;17.70;99.90;;;;;;5094453;28;20468;-78
2022/10/06 03:32:22;;;;;;;8.93;7.53;;;17.70;99.90;;;;;;5094111;28;20506;-77
2022/10/06 03:34:51;;;;;;;6.97;6.10;;;17.70;99.90;;;;;;5094574;28;20487;-77
2022/10/06 03:37:20;;;;;;;8.13;7.40;;;17.70;99.90;;;;;;5094969;28;20474;-77
2022/10/06 03:39:47;;;;;;;8.43;7.63;;;17.80;99.90;;;;;;5094139;28;20480;-77
2022/10/06 03:42:13;;;;;;;8.53;7.30;;;17.80;99.90;;;;;;5094783;28;20507;-76
2022/10/06 03:44:40;;;;;;;8.50;7.67;;;17.80;99.90;;;;;;5094444;28;20506;-77
2022/10/06 03:47:11;;;;;;;8.10;7.30;;;17.80;99.90;;;;;;5094857;28;20470;-77
2022/10/06 03:49:38;;;;;;;6.83;6.10;;;17.80;99.90;;;;;;5095400;28;20473;-79
2022/10/06 03:52:06;;;;;;;13.43;10.53;;;17.90;99.90;;;;;;5087062;28;20489;-79
2022/10/06 03:54:34;;;;;;;10.83;9.73;;;17.90;99.90;;;;;;5094582;28;20817;-77
2022/10/06 03:57:01;;;;;;;14.03;10.73;;;17.90;99.90;;;;;;5094000;28;20496;-77
2022/10/06 03:59:32;;;;;;;15.30;11.70;;;17.90;99.90;;;;;;5094774;28;20472;-78
2022/10/06 04:02:00;;;;;;;10.90;9.73;;;17.90;99.90;;;;;;5094731;28;20465;-77
2022/10/06 04:04:26;;;;;;;17.57;13.50;;;17.90;99.90;;;;;;5094747;28;20468;-78
2022/10/06 04:06:53;;;;;;;13.07;9.83;;;17.90;99.90;;;;;;5094030;28;20537;-77
2022/10/06 04:09:20;;;;;;;8.20;7.37;;;17.90;99.90;;;;;;5094543;28;20499;-78
2022/10/06 04:11:50;;;;;;;8.23;7.43;;;17.90;99.90;;;;;;5093883;28;20478;-79
2022/10/06 04:14:17;;;;;;;8.50;7.57;;;17.90;99.90;;;;;;5093894;28;20469;-80
2022/10/06 04:16:46;;;;;;;8.80;6.77;;;17.90;99.90;;;;;;5094408;28;20959;-78
2022/10/06 04:19:15;;;;;;;9.77;8.77;;;17.90;99.90;;;;;;5093599;28;20812;-80
2022/10/06 04:21:43;;;;;;;10.00;8.20;;;17.90;99.90;;;;;;5093835;28;20472;-79
2022/10/06 04:24:11;;;;;;;22.30;17.60;;;17.90;99.90;;;;;;5094215;28;20958;-78
2022/10/06 04:26:40;;;;;;;13.23;10.97;;;17.90;99.90;;;;;;5094856;28;20468;-80
2022/10/06 04:29:08;;;;;;;10.07;8.90;;;17.90;99.90;;;;;;5093464;28;20465;-79
2022/10/06 04:31:37;;;;;;;14.83;11.27;;;17.90;99.90;;;;;;5094707;28;20481;-80
2022/10/06 04:34:06;;;;;;;6.97;6.20;;;17.90;99.90;;;;;;5093094;28;20529;-80
2022/10/06 04:36:34;;;;;;;6.37;5.60;;;17.90;99.90;;;;;;5094181;28;20469;-78
2022/10/06 04:39:03;;;;;;;6.83;6.13;;;17.90;99.90;;;;;;5093738;28;20815;-78
2022/10/06 04:41:32;;;;;;;5.70;4.83;;;17.90;99.90;;;;;;5093916;28;20951;-77
2022/10/06 04:44:00;;;;;;;5.57;4.97;;;17.90;99.90;;;;;;5093359;28;20530;-77
2022/10/06 04:46:30;;;;;;;9.67;8.67;;;17.90;99.90;;;;;;5093949;28;20946;-77
2022/10/06 04:48:57;;;;;;;7.00;6.30;;;17.90;99.90;;;;;;5093480;28;20526;-77
2022/10/06 04:51:26;;;;;;;3.50;2.93;;;17.80;99.90;;;;;;5094273;28;20527;-77
2022/10/06 04:53:53;;;;;;;3.87;3.37;;;17.80;99.90;;;;;;5094113;28;21087;-77
2022/10/06 04:56:23;;;;;;;7.70;6.10;;;17.80;99.90;;;;;;5092297;28;20472;-80
2022/10/06 04:58:52;;;;;;;4.90;4.00;;;17.80;99.90;;;;;;5093389;28;20522;-80
2022/10/06 05:01:21;;;;;;;4.20;3.33;;;17.80;99.90;;;;;;5093609;28;20456;-79
2022/10/06 05:03:51;;;;;;;5.67;5.10;;;17.80;99.90;;;;;;5094068;28;20473;-77
2022/10/06 05:06:21;;;;;;;7.10;4.80;;;17.80;99.90;;;;;;5092575;28;20526;-77
2022/10/06 05:08:49;;;;;;;4.20;3.67;;;17.80;99.90;;;;;;5094179;28;20469;-78
2022/10/06 05:11:17;;;;;;;3.63;3.30;;;17.80;99.90;;;;;;5083947;28;20549;-77
2022/10/06 05:13:45;;;;;;;4.53;4.03;;;17.80;99.90;;;;;;5097789;28;20496;-76
2022/10/06 05:16:13;;;;;;;5.43;4.20;;;17.80;99.90;;;;;;5097387;28;20992;-78
2022/10/06 05:18:41;;;;;;;5.60;5.07;;;17.70;99.90;;;;;;5097955;28;20870;-78
2022/10/06 05:21:12;;;;;;;6.07;4.40;;;17.70;99.90;;;;;;5097684;28;20509;-78
2022/10/06 05:23:40;;;;;;;4.67;3.30;;;17.70;99.90;;;;;;5097772;28;20468;-78
2022/10/06 05:26:08;;;;;;;4.53;3.00;;;17.70;99.90;;;;;;5097491;28;20471;-78
2022/10/06 05:28:35;;;;;;;5.90;5.30;;;17.70;99.90;;;;;;5097438;28;20530;-77
2022/10/06 05:31:08;;;;;;;2.60;2.40;;;17.70;99.90;;;;;;5097085;28;20467;-79
2022/10/06 05:33:38;;;;;;;4.10;3.20;;;17.70;99.90;;;;;;5096666;28;20555;-78
2022/10/06 05:36:10;;;;;;;4.50;4.10;;;17.70;99.90;;;;;;5096837;28;20481;-77
2022/10/06 05:38:39;;;;;;;2.07;1.50;;;17.70;99.90;;;;;;5097240;28;20465;-77
2022/10/06 05:41:09;;;;;;;2.83;2.63;;;17.70;99.90;;;;;;5096450;28;20513;-78
2022/10/06 05:43:36;;;;;;;2.37;2.17;;;17.60;99.90;;;;;;5085342;28;20468;-78
2022/10/06 05:46:05;;;;;;;3.90;3.47;;;17.60;99.90;;;;;;5096181;28;20895;-78
2022/10/06 05:48:35;;;;;;;6.40;5.70;;;17.60;99.90;;;;;;5097701;28;20852;-78
2022/10/06 05:51:04;;;;;;;2.93;2.50;;;17.60;99.90;;;;;;5097170;28;20468;-78
2022/10/06 05:53:32;;;;;;;3.10;2.57;;;17.50;99.90;;;;;;5097042;28;20476;-79
2022/10/06 05:56:05;;;;;;;3.97;3.13;;;17.50;99.90;;;;;;5096712;28;20856;-79
2022/10/06 05:58:36;;;;;;;6.37;4.77;;;17.50;99.90;;;;;;5097647;28;20476;-78
2022/10/06 06:01:11;;;;;;;9.17;5.10;;;17.50;99.90;;;;;;5096545;28;20468;-78
2022/10/06 06:03:39;;;;;;;8.90;7.40;;;17.50;99.90;;;;;;5096924;28;20498;-78
2022/10/06 06:06:16;;;;;;;11.70;9.97;;;17.50;99.90;;;;;;5099646;28;20542;-78
2022/10/06 06:08:43;;;;;;;49.03;31.23;;;17.40;99.90;;;;;;5101471;28;20467;-78
2022/10/06 06:11:12;;;;;;;12.00;8.67;;;17.40;99.90;;;;;;5100727;28;20475;-77
2022/10/06 06:14:00;;;;;;;7.27;4.57;;;17.40;99.90;;;;;;5101438;28;20482;-78
2022/10/06 06:16:30;;;;;;;13.77;12.10;;;17.40;99.90;;;;;;5101775;28;20529;-78
2022/10/06 06:18:59;;;;;;;12.57;10.43;;;17.30;99.90;;;;;;5096807;28;20470;-79
2022/10/06 06:21:26;;;;;;;8.27;6.60;;;17.30;99.90;;;;;;5096173;28;20468;-79
2022/10/06 06:23:53;;;;;;;8.20;4.87;;;17.30;99.90;;;;;;5096323;28;20502;-79
2022/10/06 06:26:25;;;;;;;5.00;3.90;;;17.20;99.90;;;;;;5096234;28;20503;-80
2022/10/06 06:29:01;;;;;;;4.43;3.83;;;17.20;99.90;;;;;;5097361;28;20479;-79
2022/10/06 06:31:30;;;;;;;14.23;9.47;;;17.20;99.90;;;;;;5096557;28;20955;-79
2022/10/06 06:34:12;;;;;;;9.77;7.17;;;17.20;99.90;;;;;;5075118;28;20540;-80
2022/10/06 06:36:42;;;;;;;10.83;7.27;;;17.20;99.90;;;;;;5068391;28;20535;-78
2022/10/06 06:39:10;;;;;;;7.70;5.53;;;17.10;99.90;;;;;;5096824;28;20475;-78
2022/10/06 06:41:40;;;;;;;5.40;4.17;;;17.10;99.90;;;;;;5095583;28;20492;-80
2022/10/06 06:44:10;;;;;;;10.70;7.90;;;17.10;99.90;;;;;;5096385;28;20469;-80
2022/10/06 06:46:37;;;;;;;4.67;3.23;;;17.10;99.90;;;;;;5095810;28;20470;-79
2022/10/06 06:49:05;;;;;;;3.40;2.57;;;17.10;99.90;;;;;;5096968;28;20499;-79
2022/10/06 06:51:37;;;;;;;2.10;1.90;;;17.10;99.90;;;;;;5094637;28;20483;-79
2022/10/06 06:54:05;;;;;;;12.17;7.50;;;17.10;99.90;;;;;;5095941;28;20532;-79
2022/10/06 06:56:34;;;;;;;5.33;3.30;;;17.10;99.90;;;;;;5095438;28;20473;-79
2022/10/06 06:59:05;;;;;;;8.20;5.40;;;17.10;99.90;;;;;;5096309;28;20979;-79
2022/10/06 07:01:32;;;;;;;4.67;3.20;;;17.10;99.90;;;;;;5095710;28;20842;-78
2022/10/06 07:03:59;;;;;;;6.30;4.33;;;17.10;99.90;;;;;;5096988;28;20511;-77
2022/10/06 07:06:28;;;;;;;7.57;5.40;;;17.10;99.90;;;;;;5094450;28;20501;-80
2022/10/06 07:08:56;;;;;;;5.40;3.47;;;17.10;99.90;;;;;;5097631;28;20519;-78
2022/10/06 07:11:26;;;;;;;2.87;2.40;;;17.10;99.90;;;;;;5097841;28;20467;-78
2022/10/06 07:13:54;;;;;;;3.63;3.13;;;17.10;99.90;;;;;;5097094;28;20493;-80
2022/10/06 07:27:27;;;;;;;10.10;6.33;;;17.00;99.90;;;;;;5103354;28;20482;-79
2022/10/06 07:29:57;;;;;;;14.80;10.17;;;17.00;99.90;;;;;;5104063;28;20454;-79
2022/10/06 07:32:29;;;;;;;4.97;3.07;;;17.00;99.90;;;;;;5103225;28;20475;-78
2022/10/06 07:35:03;;;;;;;8.17;3.50;;;17.00;99.90;;;;;;5104883;28;20517;-78
2022/10/06 07:37:30;;;;;;;3.50;2.20;;;17.00;99.90;;;;;;5105998;28;20479;-79
2022/10/06 07:39:57;;;;;;;4.87;3.07;;;17.00;99.90;;;;;;5107011;28;20458;-77
2022/10/06 07:42:30;;;;;;;2.13;1.83;;;17.00;99.90;;;;;;5104236;28;20502;-78
2022/10/06 07:48:00;;;;;;;8.90;6.73;;;17.10;99.90;;;;;;5107011;28;20465;-78
2022/10/06 07:50:28;;;;;;;8.87;5.13;;;17.10;99.90;;;;;;5105616;28;20455;-78
2022/10/06 07:52:54;;;;;;;8.60;4.83;;;17.20;99.90;;;;;;5104038;28;20491;-79
2022/10/06 07:55:22;;;;;;;9.40;7.20;;;17.20;99.90;;;;;;5101873;28;20529;-79
2022/10/06 07:57:50;;;;;;;11.00;7.40;;;17.20;99.90;;;;;;5104015;28;20509;-80
2022/10/06 08:00:19;;;;;;;7.07;5.33;;;17.20;99.90;;;;;;5101223;28;20468;-79
2022/10/06 08:02:46;;;;;;;13.67;10.10;;;17.30;99.90;;;;;;5098755;28;20469;-79
2022/10/06 08:05:15;;;;;;;8.93;4.60;;;17.20;99.90;;;;;;5098008;28;20464;-79
2022/10/06 08:07:45;;;;;;;6.80;3.23;;;17.30;99.90;;;;;;5097116;28;20527;-80
2022/10/06 08:10:12;;;;;;;5.40;2.77;;;17.30;99.90;;;;;;5094796;28;20479;-80
2022/10/06 08:12:39;;;;;;;3.00;2.50;;;17.30;99.90;;;;;;5095272;28;20540;-78
2022/10/06 08:15:10;;;;;;;4.00;2.60;;;17.30;99.90;;;;;;5093613;28;20799;-78
2022/10/06 08:17:38;;;;;;;8.40;5.47;;;17.30;99.90;;;;;;5094517;28;20805;-78
2022/10/06 08:20:09;;;;;;;6.90;3.20;;;17.20;99.90;;;;;;5093860;28;20510;-78
2022/10/06 08:22:38;;;;;;;4.33;2.60;;;17.20;99.90;;;;;;5093593;28;20555;-78
2022/10/06 08:25:11;;;;;;;3.93;2.00;;;17.20;99.90;;;;;;5093057;28;20475;-78
2022/10/06 08:27:39;;;;;;;3.87;2.00;;;17.20;99.90;;;;;;5094138;28;20480;-80
2022/10/06 08:30:07;;;;;;;6.00;2.80;;;17.20;99.90;;;;;;5093462;28;20469;-80
2022/10/06 08:32:35;;;;;;;16.47;11.27;;;17.20;99.90;;;;;;5094047;28;20640;-77
2022/10/06 08:35:02;;;;;;;13.03;8.30;;;17.20;99.90;;;;;;5093835;28;20923;-78
2022/10/06 08:37:30;;;;;;;8.47;3.80;;;17.20;99.90;;;;;;5093048;28;20463;-77
2022/10/06 08:39:58;;;;;;;3.87;2.40;;;17.30;99.90;;;;;;5093894;28;20478;-78
2022/10/06 08:42:32;;;;;;;4.87;2.77;;;17.30;99.90;;;;;;5093199;28;20968;-78
2022/10/06 08:45:02;;;;;;;4.13;2.43;;;17.40;99.90;;;;;;5093556;28;20498;-78
2022/10/06 08:47:37;;;;;;;13.57;9.47;;;17.50;99.90;;;;;;5093328;28;20779;-78
2022/10/06 08:50:08;;;;;;;4.97;2.97;;;17.40;99.90;;;;;;5093438;28;20468;-78
2022/10/06 08:52:52;;;;;;;9.30;5.50;;;17.50;99.90;;;;;;5093592;28;20462;-78
2022/10/06 08:55:35;;;;;;;5.33;3.17;;;17.60;99.90;;;;;;5093231;28;20462;-79
2022/10/06 08:58:30;;;;;;;5.03;3.10;;;17.70;99.90;;;;;;5093697;28;20487;-78
2022/10/06 09:01:01;;;;;;;3.80;2.57;;;17.70;99.90;;;;;;5092393;28;20475;-79
2022/10/06 09:03:30;;;;;;;3.87;2.50;;;17.80;99.90;;;;;;5093329;28;20474;-79
2022/10/06 09:06:08;;;;;;;3.83;2.10;;;17.90;99.90;;;;;;5092749;28;20507;-79
2022/10/06 09:08:45;;;;;;;8.43;6.13;;;17.90;99.90;;;;;;5093494;28;20479;-78
2022/10/06 09:11:35;;;;;;;5.77;4.53;;;17.90;99.90;;;;;;5092353;28;20548;-78
2022/10/06 09:14:06;;;;;;;6.23;3.27;;;17.90;99.90;;;;;;5093350;28;20503;-78
2022/10/06 09:16:39;;;;;;;3.33;1.80;;;17.90;99.90;;;;;;5094227;28;20465;-79
2022/10/06 09:19:14;;;;;;;4.77;2.20;;;17.90;99.90;;;;;;5092110;28;20496;-79
2022/10/06 09:21:45;;;;;;;2.60;2.07;;;17.90;99.90;;;;;;5092990;28;20473;-79
2022/10/06 09:24:16;;;;;;;6.43;2.57;;;17.80;99.90;;;;;;5093024;28;20463;-77
2022/10/06 09:26:48;;;;;;;9.70;7.33;;;17.80;99.90;;;;;;5093580;28;20942;-78
2022/10/06 09:29:16;;;;;;;21.90;15.83;;;17.70;99.90;;;;;;5092945;28;21553;-78
2022/10/06 09:31:49;;;;;;;6.73;4.83;;;17.70;99.90;;;;;;5093596;28;20466;-79
2022/10/06 09:34:24;;;;;;;8.53;4.60;;;17.70;99.90;;;;;;5092282;28;21040;-79
2022/10/06 09:37:02;;;;;;;17.77;10.13;;;17.70;99.90;;;;;;5093693;28;20471;-79
2022/10/06 09:39:35;;;;;;;5.57;3.30;;;17.60;99.90;;;;;;5092912;28;20547;-79
2022/10/06 09:42:06;;;;;;;7.90;4.60;;;17.60;99.90;;;;;;5093122;28;20533;-80
2022/10/06 09:44:45;;;;;;;6.57;3.93;;;17.70;99.90;;;;;;5092734;28;20471;-79
2022/10/06 09:47:33;;;;;;;9.73;4.47;;;17.70;99.90;;;;;;5092557;28;20464;-77
2022/10/06 09:50:20;;;;;;;4.70;2.80;;;17.70;99.90;;;;;;5093340;28;20471;-78
2022/10/06 09:53:10;;;;;;;5.57;2.97;;;17.70;99.90;;;;;;5093739;28;20482;-80
2022/10/06 09:55:55;;;;;;;7.47;4.43;;;17.80;99.90;;;;;;5093393;28;20773;-78
2022/10/06 09:58:32;;;;;;;8.93;2.70;;;17.80;99.90;;;;;;5095270;28;20472;-78
2022/10/06 10:01:01;;;;;;;8.30;4.20;;;17.80;99.90;;;;;;5087139;28;20547;-78
2022/10/06 10:03:45;;;;;;;6.87;4.17;;;17.90;99.90;;;;;;5097568;28;20476;-78
2022/10/06 10:06:22;;;;;;;6.57;3.97;;;18.00;99.90;;;;;;5097477;28;20461;-78
2022/10/06 10:08:49;;;;;;;5.00;4.23;;;18.00;99.90;;;;;;5096693;28;20453;-81
2022/10/06 10:14:18;;;;;;;6.50;3.80;;;18.10;99.90;;;;;;5096561;28;20466;-78
2022/10/06 10:16:53;;;;;;;5.10;2.57;;;18.10;99.60;;;;;;5096734;28;20472;-78
2022/10/06 10:19:31;;;;;;;3.90;2.23;;;18.20;99.50;;;;;;5095227;28;20472;-78
2022/10/06 10:21:59;;;;;;;9.33;6.77;;;18.20;99.50;;;;;;5073759;28;20483;-78
2022/10/06 10:24:46;;;;;;;11.33;7.80;;;18.30;99.60;;;;;;5084600;28;20481;-77
2022/10/06 10:27:23;;;;;;;6.63;4.80;;;18.30;99.60;;;;;;5090269;28;20487;-78
2022/10/06 10:30:04;;;;;;;7.13;3.67;;;18.30;99.50;;;;;;5083377;28;20517;-78
2022/10/06 10:32:49;;;;;;;7.40;5.20;;;18.30;99.40;;;;;;5082341;28;20488;-78
2022/10/06 10:35:25;;;;;;;5.30;3.73;;;18.30;99.20;;;;;;5096661;28;20484;-79
2022/10/06 10:37:58;;;;;;;5.93;4.20;;;18.40;99.00;;;;;;5082230;28;20491;-78
2022/10/06 10:40:33;;;;;;;6.53;5.93;;;18.40;98.90;;;;;;5095461;28;20848;-78
2022/10/06 10:43:10;;;;;;;6.20;5.07;;;18.40;99.00;;;;;;5077837;28;20454;-78
2022/10/06 10:45:44;;;;;;;10.77;3.80;;;18.40;98.90;;;;;;5087075;28;20470;-78
2022/10/06 10:48:16;;;;;;;5.60;4.47;;;18.50;98.80;;;;;;5086642;28;20507;-80
2022/10/06 10:50:50;;;;;;;4.67;4.20;;;18.50;98.70;;;;;;5081585;28;20540;-79
2022/10/06 10:53:23;;;;;;;5.30;2.87;;;18.50;98.40;;;;;;5083994;28;20465;-79
2022/10/06 10:55:52;;;;;;;3.70;2.60;;;18.60;98.30;;;;;;5096576;28;20525;-80
2022/10/06 10:58:23;;;;;;;6.40;4.87;;;18.60;98.30;;;;;;5082744;28;20491;-80
2022/10/06 11:00:56;;;;;;;4.57;2.20;;;18.60;98.10;;;;;;5087297;28;20463;-78
2022/10/06 11:03:25;;;;;;;3.83;1.87;;;18.60;97.80;;;;;;5088140;28;20493;-78
2022/10/06 11:06:14;;;;;;;4.20;2.63;;;18.70;97.70;;;;;;5084527;28;20489;-78
2022/10/06 11:08:46;;;;;;;4.23;2.30;;;18.80;97.70;;;;;;5080633;28;20518;-79
2022/10/06 11:11:21;;;;;;;5.17;2.20;;;18.80;97.30;;;;;;5082418;28;20477;-78
2022/10/06 11:13:53;;;;;;;5.83;2.43;;;18.90;97.20;;;;;;5073918;28;20472;-79
2022/10/06 11:16:35;;;;;;;6.10;4.50;;;18.90;97.30;;;;;;5083964;28;20524;-79
2022/10/06 11:19:15;;;;;;;4.47;3.40;;;19.00;96.80;;;;;;5089616;28;20462;-79
2022/10/06 11:21:48;;;;;;;4.20;2.10;;;18.90;96.70;;;;;;5093351;28;20562;-79
2022/10/06 11:24:27;;;;;;;7.47;4.50;;;18.90;96.50;;;;;;5090118;28;20955;-77
2022/10/06 11:27:16;;;;;;;6.03;3.03;;;18.90;96.50;;;;;;5087448;28;20461;-78
2022/10/06 11:30:00;;;;;;;4.90;2.40;;;18.80;96.10;;;;;;5086415;28;20481;-77
2022/10/06 11:32:39;;;;;;;5.33;2.13;;;18.80;96.50;;;;;;5071800;28;20542;-77
2022/10/06 11:35:19;;;;;;;4.80;2.37;;;18.90;96.00;;;;;;5085252;28;20477;-79
2022/10/06 11:43:59;;;;;;;4.03;2.43;;;18.80;96.20;;;;;;5090427;28;20464;-77
2022/10/06 11:46:37;;;;;;;5.27;2.67;;;18.80;96.40;;;;;;5069247;28;20534;-79
2022/10/06 11:55:35;;;;;;;3.10;1.70;;;18.80;95.70;;;;;;5092745;28;20453;-79
2022/10/06 11:58:17;;;;;;;1.83;1.50;;;18.80;95.50;;;;;;5086726;28;20499;-78
2022/10/06 12:00:50;;;;;;;4.07;2.10;;;18.80;95.60;;;;;;5081346;28;20475;-77
2022/10/06 12:03:47;;;;;;;2.80;2.23;;;18.80;95.80;;;;;;5087762;28;20470;-79
2022/10/06 12:06:54;;;;;;;2.80;1.80;;;18.80;95.80;;;;;;5086372;28;20469;-77
2022/10/06 12:09:40;;;;;;;3.10;1.90;;;18.80;95.60;;;;;;5086967;28;20494;-79
2022/10/06 12:12:42;;;;;;;6.30;1.47;;;18.80;95.10;;;;;;5081863;28;20453;-78
2022/10/06 12:15:26;;;;;;;2.40;1.40;;;18.90;95.00;;;;;;5080021;28;20475;-79
2022/10/06 12:18:00;;;;;;;2.57;1.43;;;18.80;95.10;;;;;;5088106;28;20526;-79
2022/10/06 12:20:38;;;;;;;5.53;1.90;;;18.90;95.30;;;;;;5088459;28;20803;-78
2022/10/06 12:23:19;;;;;;;1.80;1.43;;;18.90;95.40;;;;;;5090216;28;20544;-78
2022/10/06 12:25:52;;;;;;;2.60;2.13;;;18.90;95.30;;;;;;5085412;28;20486;-79
2022/10/06 12:28:34;;;;;;;3.60;2.70;;;18.90;95.30;;;;;;5082499;28;20467;-79
2022/10/06 12:31:23;;;;;;;2.73;2.23;;;19.00;95.20;;;;;;5096184;28;20474;-79
2022/10/06 12:33:50;;;;;;;6.80;2.60;;;19.00;95.00;;;;;;5090377;28;20457;-78
2022/10/06 12:36:32;;;;;;;4.60;3.13;;;19.00;94.90;;;;;;5092826;28;20462;-80
2022/10/06 12:39:22;;;;;;;4.67;3.70;;;19.00;94.90;;;;;;5084657;28;20461;-78
2022/10/06 12:42:01;;;;;;;3.97;2.60;;;19.00;94.70;;;;;;5082970;28;20474;-80
2022/10/06 12:44:32;;;;;;;4.00;2.33;;;19.00;94.40;;;;;;5092389;28;20458;-78
2022/10/06 12:47:11;;;;;;;4.50;2.13;;;19.00;94.30;;;;;;5097890;28;20492;-80
2022/10/06 12:49:46;;;;;;;4.23;2.60;;;18.90;94.10;;;;;;5095003;28;20465;-76
2022/10/06 12:52:27;;;;;;;3.63;2.27;;;18.90;93.60;;;;;;5091530;28;20473;-77
2022/10/06 12:55:06;;;;;;;3.67;2.13;;;18.90;93.40;;;;;;5093330;28;20473;-78
2022/10/06 12:57:46;;;;;;;2.27;1.87;;;18.90;93.30;;;;;;5108393;28;20457;-76
2022/10/06 13:00:32;;;;;;;3.00;1.80;;;18.90;93.10;;;;;;5105609;28;20480;-78
2022/10/06 13:03:05;;;;;;;3.23;1.60;;;18.90;93.00;;;;;;5102723;28;20469;-78
2022/10/06 13:06:18;;;;;;;5.60;2.87;;;18.80;92.90;;;;;;5108659;28;20967;-77
2022/10/06 13:08:45;;;;;;;3.20;2.20;;;18.90;93.10;;;;;;5038421;28;20465;-77
2022/10/06 13:11:20;;;;;;;3.17;1.70;;;18.80;93.50;;;;;;5108481;28;20487;-77
2022/10/06 13:13:49;;;;;;;2.83;1.63;;;18.80;93.70;;;;;;5104972;28;20495;-77
2022/10/06 13:16:19;;;;;;;4.60;1.97;;;18.80;93.80;;;;;;5105791;28;20473;-78
2022/10/06 13:18:46;;;;;;;2.90;1.77;;;18.80;93.70;;;;;;5106848;28;20525;-78
2022/10/06 13:21:15;;;;;;;5.00;2.80;;;18.80;93.70;;;;;;5100974;28;20469;-78
2022/10/06 13:23:43;;;;;;;2.13;1.63;;;18.80;93.70;;;;;;5095120;28;20490;-79
2022/10/06 13:26:21;;;;;;;3.20;1.90;;;18.90;93.80;;;;;;5088327;28;20817;-77
2022/10/06 13:28:50;;;;;;;6.13;2.60;;;18.90;93.90;;;;;;5078210;28;20470;-79
2022/10/06 13:31:22;;;;;;;7.27;3.13;;;18.90;94.00;;;;;;5086630;28;20469;-77
2022/10/06 13:33:52;;;;;;;7.00;2.00;;;18.90;93.70;;;;;;5098729;28;20457;-79
2022/10/06 13:36:22;;;;;;;3.70;1.93;;;18.90;93.50;;;;;;5100042;28;20449;-79
2022/10/06 13:38:52;;;;;;;3.80;2.90;;;18.90;93.50;;;;;;5103826;28;20536;-80
2022/10/06 13:41:28;;;;;;;3.90;1.80;;;18.90;93.40;;;;;;5096738;28;20464;-78